Fokker F28-0100 from Air Berlin at Dusseldorf.
 Regi:D-AGPJ  LARGER
 MSN Year:11312 1990
 Date of picture:2007-04-21 09:16
 Position:05R
 Flight: ARR MUC DI7082 Munchen International Airport Germany
 Logs: D-AGPJ (F100 GMI) 0855 20070421 DI7082 (MUC-DUS) [somewhere]
 Metar 21/04/2007 08:50 METAR EDDL 210850Z VRB03KT CAVOK 10/M01 Q1023 NOSIG=
 Hits: 184 ID: 881

Debriefing: Photographed movements of Airports in NW-Europe.
The images of our site attendant is in authorisation from Queen of Sky.
Copying of images of this site have been prohibited in which manner without the authorisation of the photographer.
In behalf of the crew :"Thank you visiting us" - Contact
Factsheets Fokker, F28-0100, Air Berlin, made by De Plane! © 2006 - 2022 All rights reserved


.